sensor_id;sensor_type;location;lat;lon;timestamp;pressure;altitude;pressure_sealevel;temperature;humidity
21361;BME280;10839;43.206;23.550;2024-03-02T00:00:51;96751.47;;;8.31;100.00
21361;BME280;10839;43.206;23.550;2024-03-02T00:03:18;96756.41;;;8.13;100.00
21361;BME280;10839;43.206;23.550;2024-03-02T00:05:44;96752.16;;;8.18;100.00
21361;BME280;10839;43.206;23.550;2024-03-02T00:08:23;96750.69;;;8.37;100.00
21361;BME280;10839;43.206;23.550;2024-03-02T00:10:49;96759.63;;;8.23;100.00
21361;BME280;10839;43.206;23.550;2024-03-02T00:13:15;96757.78;;;8.09;100.00
21361;BME280;10839;43.206;23.550;2024-03-02T00:18:14;96756.00;;;8.30;100.00
21361;BME280;10839;43.206;23.550;2024-03-02T00:20:41;96765.91;;;8.30;100.00
21361;BME280;10839;43.206;23.550;2024-03-02T00:23:08;96760.00;;;8.20;100.00
21361;BME280;10839;43.206;23.550;2024-03-02T00:25:39;96767.78;;;8.15;100.00
21361;BME280;10839;43.206;23.550;2024-03-02T00:28:21;96765.53;;;8.33;100.00
21361;BME280;10839;43.206;23.550;2024-03-02T00:33:13;96759.75;;;8.15;100.00
21361;BME280;10839;43.206;23.550;2024-03-02T00:35:38;96741.16;;;8.28;100.00
21361;BME280;10839;43.206;23.550;2024-03-02T00:38:07;96759.00;;;8.42;100.00
21361;BME280;10839;43.206;23.550;2024-03-02T00:40:32;96748.63;;;8.18;100.00
21361;BME280;10839;43.206;23.550;2024-03-02T00:42:58;96762.81;;;8.12;100.00
21361;BME280;10839;43.206;23.550;2024-03-02T00:45:25;96752.34;;;8.17;100.00
21361;BME280;10839;43.206;23.550;2024-03-02T00:47:51;96758.06;;;8.28;100.00
21361;BME280;10839;43.206;23.550;2024-03-02T00:50:17;96760.38;;;8.17;100.00
21361;BME280;10839;43.206;23.550;2024-03-02T00:52:42;96760.75;;;8.14;100.00
21361;BME280;10839;43.206;23.550;2024-03-02T00:55:08;96747.75;;;8.32;100.00
21361;BME280;10839;43.206;23.550;2024-03-02T00:57:34;96749.97;;;8.43;100.00
21361;BME280;10839;43.206;23.550;2024-03-02T01:00:00;96754.47;;;8.42;100.00
21361;BME280;10839;43.206;23.550;2024-03-02T01:02:26;96760.63;;;8.36;100.00
21361;BME280;10839;43.206;23.550;2024-03-02T01:04:52;96748.03;;;8.37;100.00
21361;BME280;10839;43.206;23.550;2024-03-02T01:07:17;96750.34;;;8.40;100.00
21361;BME280;10839;43.206;23.550;2024-03-02T01:09:43;96756.28;;;8.21;100.00
21361;BME280;10839;43.206;23.550;2024-03-02T01:12:09;96755.63;;;8.19;100.00
21361;BME280;10839;43.206;23.550;2024-03-02T01:14:34;96752.13;;;8.33;100.00
21361;BME280;10839;43.206;23.550;2024-03-02T01:17:00;96739.50;;;8.27;100.00
21361;BME280;10839;43.206;23.550;2024-03-02T01:19:28;96739.25;;;8.43;100.00
21361;BME280;10839;43.206;23.550;2024-03-02T01:21:54;96717.41;;;8.25;100.00
21361;BME280;10839;43.206;23.550;2024-03-02T01:24:20;96706.00;;;8.23;100.00
21361;BME280;10839;43.206;23.550;2024-03-02T01:26:45;96721.06;;;8.38;100.00
21361;BME280;10839;43.206;23.550;2024-03-02T01:29:11;96704.28;;;8.15;100.00
21361;BME280;10839;43.206;23.550;2024-03-02T01:31:36;96704.28;;;8.15;100.00
21361;BME280;10839;43.206;23.550;2024-03-02T01:34:02;96698.44;;;8.47;100.00
21361;BME280;10839;43.206;23.550;2024-03-02T01:36:27;96695.94;;;8.46;100.00
21361;BME280;10839;43.206;23.550;2024-03-02T01:38:53;96697.72;;;8.18;100.00
21361;BME280;10839;43.206;23.550;2024-03-02T01:41:18;96695.28;;;8.23;100.00
21361;BME280;10839;43.206;23.550;2024-03-02T01:43:44;96697.50;;;8.34;100.00
21361;BME280;10839;43.206;23.550;2024-03-02T01:46:09;96693.03;;;8.41;100.00
21361;BME280;10839;43.206;23.550;2024-03-02T01:48:35;96690.63;;;8.25;100.00
21361;BME280;10839;43.206;23.550;2024-03-02T01:51:00;96692.50;;;8.31;100.00
21361;BME280;10839;43.206;23.550;2024-03-02T01:53:26;96690.59;;;8.46;100.00
21361;BME280;10839;43.206;23.550;2024-03-02T01:55:53;96700.03;;;8.42;100.00
21361;BME280;10839;43.206;23.550;2024-03-02T01:58:18;96668.31;;;8.03;100.00
21361;BME280;10839;43.206;23.550;2024-03-02T02:00:44;96680.41;;;8.35;100.00
21361;BME280;10839;43.206;23.550;2024-03-02T02:03:10;96674.13;;;8.49;100.00
21361;BME280;10839;43.206;23.550;2024-03-02T02:05:35;96680.16;;;8.30;100.00
21361;BME280;10839;43.206;23.550;2024-03-02T02:08:01;96674.91;;;8.43;100.00
21361;BME280;10839;43.206;23.550;2024-03-02T02:10:27;96668.66;;;8.36;100.00
21361;BME280;10839;43.206;23.550;2024-03-02T02:12:52;96683.88;;;8.35;100.00
21361;BME280;10839;43.206;23.550;2024-03-02T02:15:29;96679.75;;;8.33;100.00
21361;BME280;10839;43.206;23.550;2024-03-02T02:17:55;96684.97;;;8.41;100.00
21361;BME280;10839;43.206;23.550;2024-03-02T02:20:22;96690.47;;;8.33;100.00
21361;BME280;10839;43.206;23.550;2024-03-02T02:22:58;96697.88;;;8.31;100.00
21361;BME280;10839;43.206;23.550;2024-03-02T02:25:24;96699.66;;;8.45;100.00
21361;BME280;10839;43.206;23.550;2024-03-02T02:27:50;96694.91;;;8.47;100.00
21361;BME280;10839;43.206;23.550;2024-03-02T02:30:23;96689.63;;;8.32;100.00
21361;BME280;10839;43.206;23.550;2024-03-02T02:32:49;96707.75;;;8.30;100.00
21361;BME280;10839;43.206;23.550;2024-03-02T02:35:14;96697.69;;;8.32;100.00
21361;BME280;10839;43.206;23.550;2024-03-02T02:37:41;96708.81;;;8.15;100.00
21361;BME280;10839;43.206;23.550;2024-03-02T02:40:07;96706.00;;;8.23;100.00
21361;BME280;10839;43.206;23.550;2024-03-02T02:42:32;96703.63;;;8.28;100.00
21361;BME280;10839;43.206;23.550;2024-03-02T02:44:58;96705.19;;;8.22;100.00
21361;BME280;10839;43.206;23.550;2024-03-02T02:47:23;96697.22;;;8.29;100.00
21361;BME280;10839;43.206;23.550;2024-03-02T02:49:49;96704.53;;;8.35;100.00
21361;BME280;10839;43.206;23.550;2024-03-02T02:52:14;96704.28;;;8.30;100.00
21361;BME280;10839;43.206;23.550;2024-03-02T02:54:40;96694.66;;;8.42;100.00
21361;BME280;10839;43.206;23.550;2024-03-02T02:57:05;96705.38;;;8.42;100.00
21361;BME280;10839;43.206;23.550;2024-03-02T02:59:31;96697.19;;;8.43;100.00
21361;BME280;10839;43.206;23.550;2024-03-02T03:01:56;96705.78;;;8.39;100.00
21361;BME280;10839;43.206;23.550;2024-03-02T03:04:22;96712.63;;;8.41;100.00
21361;BME280;10839;43.206;23.550;2024-03-02T03:06:47;96702.78;;;8.27;100.00
21361;BME280;10839;43.206;23.550;2024-03-02T03:09:13;96710.50;;;8.37;100.00
21361;BME280;10839;43.206;23.550;2024-03-02T03:11:38;96719.81;;;8.41;100.00
21361;BME280;10839;43.206;23.550;2024-03-02T03:14:04;96723.28;;;8.20;100.00
21361;BME280;10839;43.206;23.550;2024-03-02T03:16:30;96716.75;;;8.23;100.00
21361;BME280;10839;43.206;23.550;2024-03-02T03:18:55;96729.44;;;8.14;100.00
21361;BME280;10839;43.206;23.550;2024-03-02T03:21:21;96727.41;;;8.37;100.00
21361;BME280;10839;43.206;23.550;2024-03-02T03:23:47;96724.91;;;8.15;100.00
21361;BME280;10839;43.206;23.550;2024-03-02T03:26:12;96726.28;;;8.11;100.00
21361;BME280;10839;43.206;23.550;2024-03-02T03:28:38;96722.75;;;8.46;100.00
21361;BME280;10839;43.206;23.550;2024-03-02T03:31:04;96725.44;;;8.25;100.00
21361;BME280;10839;43.206;23.550;2024-03-02T03:33:29;96709.50;;;8.02;100.00
21361;BME280;10839;43.206;23.550;2024-03-02T03:35:55;96734.59;;;8.16;100.00
21361;BME280;10839;43.206;23.550;2024-03-02T03:38:20;96729.59;;;8.27;100.00
21361;BME280;10839;43.206;23.550;2024-03-02T03:40:46;96729.59;;;8.27;100.00
21361;BME280;10839;43.206;23.550;2024-03-02T03:43:12;96730.44;;;8.28;100.00
21361;BME280;10839;43.206;23.550;2024-03-02T03:45:38;96721.59;;;8.34;100.00
21361;BME280;10839;43.206;23.550;2024-03-02T03:48:04;96716.91;;;8.36;100.00
21361;BME280;10839;43.206;23.550;2024-03-02T03:50:29;96703.41;;;8.08;100.00
21361;BME280;10839;43.206;23.550;2024-03-02T03:52:55;96712.69;;;8.27;100.00
21361;BME280;10839;43.206;23.550;2024-03-02T03:55:20;96711.84;;;8.26;100.00
21361;BME280;10839;43.206;23.550;2024-03-02T03:57:46;96699.31;;;8.27;100.00
21361;BME280;10839;43.206;23.550;2024-03-02T04:00:12;96719.53;;;8.15;100.00
21361;BME280;10839;43.206;23.550;2024-03-02T04:02:38;96705.50;;;8.13;100.00
21361;BME280;10839;43.206;23.550;2024-03-02T04:05:04;96701.19;;;8.33;100.00
21361;BME280;10839;43.206;23.550;2024-03-02T04:07:35;96723.41;;;8.27;100.00
21361;BME280;10839;43.206;23.550;2024-03-02T04:10:06;96727.84;;;8.20;100.00
21361;BME280;10839;43.206;23.550;2024-03-02T04:12:34;96725.44;;;8.25;100.00
21361;BME280;10839;43.206;23.550;2024-03-02T04:15:00;96714.06;;;8.44;100.00
21361;BME280;10839;43.206;23.550;2024-03-02T04:17:27;96708.47;;;8.39;100.00
21361;BME280;10839;43.206;23.550;2024-03-02T04:19:52;96721.06;;;8.38;100.00
21361;BME280;10839;43.206;23.550;2024-03-02T04:22:18;96719.81;;;8.41;100.00
21361;BME280;10839;43.206;23.550;2024-03-02T04:24:43;96711.25;;;8.52;100.00
21361;BME280;10839;43.206;23.550;2024-03-02T04:27:09;96728.59;;;8.14;100.00
21361;BME280;10839;43.206;23.550;2024-03-02T04:29:34;96731.06;;;8.30;100.00
21361;BME280;10839;43.206;23.550;2024-03-02T04:32:00;96723.28;;;8.35;100.00
21361;BME280;10839;43.206;23.550;2024-03-02T04:34:25;96729.03;;;8.53;100.00
21361;BME280;10839;43.206;23.550;2024-03-02T04:36:51;96728.38;;;8.30;100.00
21361;BME280;10839;43.206;23.550;2024-03-02T04:39:16;96726.97;;;8.34;100.00
21361;BME280;10839;43.206;23.550;2024-03-02T04:41:42;96715.50;;;8.40;100.00
21361;BME280;10839;43.206;23.550;2024-03-02T04:44:07;96730.81;;;8.46;100.00
21361;BME280;10839;43.206;23.550;2024-03-02T04:46:33;96728.84;;;8.33;100.00
21361;BME280;10839;43.206;23.550;2024-03-02T04:48:59;96727.72;;;8.49;100.00
21361;BME280;10839;43.206;23.550;2024-03-02T04:51:24;96718.44;;;8.45;100.00
21361;BME280;10839;43.206;23.550;2024-03-02T04:53:50;96718.72;;;8.35;100.00
21361;BME280;10839;43.206;23.550;2024-03-02T04:56:15;96722.25;;;8.36;100.00
21361;BME280;10839;43.206;23.550;2024-03-02T04:59:05;96737.94;;;8.39;100.00
21361;BME280;10839;43.206;23.550;2024-03-02T05:01:31;96740.91;;;8.65;100.00
21361;BME280;10839;43.206;23.550;2024-03-02T05:03:58;96743.31;;;8.39;100.00
21361;BME280;10839;43.206;23.550;2024-03-02T05:06:23;96742.91;;;8.42;100.00
21361;BME280;10839;43.206;23.550;2024-03-02T05:08:49;96745.44;;;8.43;100.00
21361;BME280;10839;43.206;23.550;2024-03-02T05:11:14;96740.50;;;8.68;100.00
21361;BME280;10839;43.206;23.550;2024-03-02T05:13:58;96745.34;;;8.37;100.00
21361;BME280;10839;43.206;23.550;2024-03-02T05:16:24;96750.84;;;8.50;100.00
21361;BME280;10839;43.206;23.550;2024-03-02T05:18:49;96746.75;;;8.54;100.00
21361;BME280;10839;43.206;23.550;2024-03-02T05:21:15;96754.41;;;8.57;100.00
21361;BME280;10839;43.206;23.550;2024-03-02T05:23:40;96751.59;;;8.44;100.00
21361;BME280;10839;43.206;23.550;2024-03-02T05:26:06;96750.09;;;8.56;100.00
21361;BME280;10839;43.206;23.550;2024-03-02T05:28:31;96750.09;;;8.56;100.00
21361;BME280;10839;43.206;23.550;2024-03-02T05:30:57;96750.19;;;8.69;100.00
21361;BME280;10839;43.206;23.550;2024-03-02T05:33:22;96758.25;;;8.48;100.00
21361;BME280;10839;43.206;23.550;2024-03-02T05:35:48;96758.91;;;8.50;100.00
21361;BME280;10839;43.206;23.550;2024-03-02T05:38:15;96758.13;;;8.56;100.00
21361;BME280;10839;43.206;23.550;2024-03-02T05:40:40;96760.41;;;8.59;100.00
21361;BME280;10839;43.206;23.550;2024-03-02T05:43:06;96768.59;;;8.51;100.00
21361;BME280;10839;43.206;23.550;2024-03-02T05:45:31;96758.31;;;8.54;100.00
21361;BME280;10839;43.206;23.550;2024-03-02T05:47:57;96773.31;;;8.70;100.00
21361;BME280;10839;43.206;23.550;2024-03-02T05:50:23;96775.38;;;8.68;100.00
21361;BME280;10839;43.206;23.550;2024-03-02T05:52:48;96760.69;;;8.43;100.00
21361;BME280;10839;43.206;23.550;2024-03-02T05:55:14;96780.59;;;8.55;100.00
21361;BME280;10839;43.206;23.550;2024-03-02T05:57:40;96778.19;;;8.60;100.00
21361;BME280;10839;43.206;23.550;2024-03-02T06:00:09;96777.66;;;8.50;100.00
21361;BME280;10839;43.206;23.550;2024-03-02T06:02:41;96775.59;;;8.52;100.00
21361;BME280;10839;43.206;23.550;2024-03-02T06:05:06;96761.59;;;8.50;100.00
21361;BME280;10839;43.206;23.550;2024-03-02T06:07:35;96787.09;;;8.67;100.00
21361;BME280;10839;43.206;23.550;2024-03-02T06:10:00;96782.59;;;8.46;100.00
21361;BME280;10839;43.206;23.550;2024-03-02T06:12:25;96796.78;;;8.47;100.00
21361;BME280;10839;43.206;23.550;2024-03-02T06:14:51;96789.59;;;8.47;100.00
21361;BME280;10839;43.206;23.550;2024-03-02T06:17:16;96774.28;;;8.41;100.00
21361;BME280;10839;43.206;23.550;2024-03-02T06:19:42;96780.50;;;8.27;100.00
21361;BME280;10839;43.206;23.550;2024-03-02T06:22:07;96775.59;;;8.31;100.00
21361;BME280;10839;43.206;23.550;2024-03-02T06:24:36;96789.13;;;8.44;100.00
21361;BME280;10839;43.206;23.550;2024-03-02T06:27:03;96796.44;;;8.71;100.00
21361;BME280;10839;43.206;23.550;2024-03-02T06:29:29;96787.22;;;8.59;100.00
21361;BME280;10839;43.206;23.550;2024-03-02T06:31:55;96791.69;;;8.31;100.00
21361;BME280;10839;43.206;23.550;2024-03-02T06:34:20;96792.97;;;8.56;100.00
21361;BME280;10839;43.206;23.550;2024-03-02T06:36:45;96789.78;;;8.67;100.00
21361;BME280;10839;43.206;23.550;2024-03-02T06:39:11;96790.38;;;8.41;100.00
21361;BME280;10839;43.206;23.550;2024-03-02T06:41:37;96785.97;;;8.55;100.00
21361;BME280;10839;43.206;23.550;2024-03-02T06:44:03;96786.09;;;8.68;100.00
21361;BME280;10839;43.206;23.550;2024-03-02T06:46:28;96791.06;;;8.71;100.00
21361;BME280;10839;43.206;23.550;2024-03-02T06:48:54;96798.09;;;8.72;100.00
21361;BME280;10839;43.206;23.550;2024-03-02T06:51:20;96799.22;;;8.84;100.00
21361;BME280;10839;43.206;23.550;2024-03-02T06:53:45;96799.88;;;8.86;100.00
21361;BME280;10839;43.206;23.550;2024-03-02T06:56:12;96796.66;;;8.97;100.00
21361;BME280;10839;43.206;23.550;2024-03-02T06:58:37;96805.25;;;8.65;100.00
21361;BME280;10839;43.206;23.550;2024-03-02T07:01:03;96807.41;;;8.76;100.00
21361;BME280;10839;43.206;23.550;2024-03-02T07:03:28;96813.03;;;8.81;100.00
21361;BME280;10839;43.206;23.550;2024-03-02T07:05:54;96816.63;;;8.88;100.00
21361;BME280;10839;43.206;23.550;2024-03-02T07:08:19;96809.47;;;8.74;100.00
21361;BME280;10839;43.206;23.550;2024-03-02T07:10:45;96806.91;;;8.66;100.00
21361;BME280;10839;43.206;23.550;2024-03-02T07:13:10;96811.50;;;8.93;100.00
21361;BME280;10839;43.206;23.550;2024-03-02T07:15:36;96821.34;;;8.86;100.00
21361;BME280;10839;43.206;23.550;2024-03-02T07:18:10;96814.63;;;8.75;100.00
21361;BME280;10839;43.206;23.550;2024-03-02T07:20:36;96816.38;;;8.83;100.00
21361;BME280;10839;43.206;23.550;2024-03-02T07:23:01;96818.13;;;8.97;100.00
21361;BME280;10839;43.206;23.550;2024-03-02T07:25:27;96817.63;;;8.87;100.00
21361;BME280;10839;43.206;23.550;2024-03-02T07:27:53;96820.81;;;8.76;100.00
21361;BME280;10839;43.206;23.550;2024-03-02T07:30:18;96820.56;;;8.92;100.00
21361;BME280;10839;43.206;23.550;2024-03-02T07:32:44;96814.59;;;9.18;100.00
21361;BME280;10839;43.206;23.550;2024-03-02T07:35:14;96818.53;;;8.94;100.00
21361;BME280;10839;43.206;23.550;2024-03-02T07:37:41;96822.22;;;8.93;100.00
21361;BME280;10839;43.206;23.550;2024-03-02T07:40:07;96797.09;;;9.00;100.00
21361;BME280;10839;43.206;23.550;2024-03-02T07:42:39;96814.94;;;9.08;100.00
21361;BME280;10839;43.206;23.550;2024-03-02T07:45:06;96827.09;;;8.83;100.00
21361;BME280;10839;43.206;23.550;2024-03-02T07:47:34;96806.50;;;8.90;100.00
21361;BME280;10839;43.206;23.550;2024-03-02T07:49:59;96824.25;;;9.12;100.00
21361;BME280;10839;43.206;23.550;2024-03-02T07:52:25;96822.41;;;9.13;100.00
21361;BME280;10839;43.206;23.550;2024-03-02T07:54:50;96829.84;;;8.89;100.00
21361;BME280;10839;43.206;23.550;2024-03-02T07:57:16;96823.59;;;9.10;100.00
21361;BME280;10839;43.206;23.550;2024-03-02T07:59:42;96823.19;;;9.34;100.00
21361;BME280;10839;43.206;23.550;2024-03-02T08:02:08;96832.53;;;9.17;100.00
21361;BME280;10839;43.206;23.550;2024-03-02T08:04:34;96832.31;;;8.91;100.00
21361;BME280;10839;43.206;23.550;2024-03-02T08:06:59;96834.53;;;9.30;100.00
21361;BME280;10839;43.206;23.550;2024-03-02T08:09:25;96831.03;;;9.08;100.00
21361;BME280;10839;43.206;23.550;2024-03-02T08:11:51;96838.69;;;8.90;100.00
21361;BME280;10839;43.206;23.550;2024-03-02T08:14:16;96835.50;;;9.01;100.00
21361;BME280;10839;43.206;23.550;2024-03-02T08:16:42;96836.41;;;9.08;100.00
21361;BME280;10839;43.206;23.550;2024-03-02T08:19:08;96834.78;;;9.14;100.00
21361;BME280;10839;43.206;23.550;2024-03-02T08:21:34;96837.81;;;8.83;100.00
21361;BME280;10839;43.206;23.550;2024-03-02T08:24:01;96833.47;;;9.03;100.00
21361;BME280;10839;43.206;23.550;2024-03-02T08:26:27;96836.50;;;9.21;100.00
21361;BME280;10839;43.206;23.550;2024-03-02T08:28:55;96831.03;;;9.08;100.00
21361;BME280;10839;43.206;23.550;2024-03-02T08:31:21;96837.88;;;8.89;100.00
21361;BME280;10839;43.206;23.550;2024-03-02T08:33:46;96834.09;;;9.05;100.00
21361;BME280;10839;43.206;23.550;2024-03-02T08:36:12;96835.75;;;9.06;100.00
21361;BME280;10839;43.206;23.550;2024-03-02T08:38:37;96847.91;;;9.02;100.00
21361;BME280;10839;43.206;23.550;2024-03-02T08:41:03;96835.53;;;8.80;100.00
21361;BME280;10839;43.206;23.550;2024-03-02T08:43:29;96827.84;;;8.77;100.00
21361;BME280;10839;43.206;23.550;2024-03-02T08:45:55;96839.78;;;8.95;100.00
21361;BME280;10839;43.206;23.550;2024-03-02T08:48:20;96845.22;;;9.02;100.00
21361;BME280;10839;43.206;23.550;2024-03-02T08:50:46;96839.72;;;8.89;100.00
21361;BME280;10839;43.206;23.550;2024-03-02T08:53:12;96837.28;;;9.15;100.00
21361;BME280;10839;43.206;23.550;2024-03-02T08:55:37;96832.66;;;9.30;100.00
21361;BME280;10839;43.206;23.550;2024-03-02T08:58:03;96840.59;;;9.17;100.00
21361;BME280;10839;43.206;23.550;2024-03-02T09:00:28;96845.75;;;8.91;100.00
21361;BME280;10839;43.206;23.550;2024-03-02T09:02:54;96850.38;;;9.03;100.00
21361;BME280;10839;43.206;23.550;2024-03-02T09:05:20;96844.56;;;9.21;100.00
21361;BME280;10839;43.206;23.550;2024-03-02T09:07:45;96845.22;;;9.23;100.00
21361;BME280;10839;43.206;23.550;2024-03-02T09:10:11;96849.56;;;9.03;100.00
21361;BME280;10839;43.206;23.550;2024-03-02T09:12:37;96849.56;;;9.03;100.00
21361;BME280;10839;43.206;23.550;2024-03-02T09:15:03;96853.81;;;9.19;100.00
21361;BME280;10839;43.206;23.550;2024-03-02T09:17:29;96850.31;;;8.97;100.00
21361;BME280;10839;43.206;23.550;2024-03-02T09:19:55;96849.81;;;8.87;100.00
21361;BME280;10839;43.206;23.550;2024-03-02T09:22:21;96849.19;;;9.06;100.00
21361;BME280;10839;43.206;23.550;2024-03-02T09:24:47;96858.38;;;9.18;100.00
21361;BME280;10839;43.206;23.550;2024-03-02T09:27:12;96857.81;;;9.01;100.00
21361;BME280;10839;43.206;23.550;2024-03-02T09:29:38;96858.25;;;9.05;100.00
21361;BME280;10839;43.206;23.550;2024-03-02T09:32:05;96856.97;;;9.01;100.00
21361;BME280;10839;43.206;23.550;2024-03-02T09:34:31;96859.06;;;9.05;100.00
21361;BME280;10839;43.206;23.550;2024-03-02T09:36:57;96871.91;;;8.89;100.00
21361;BME280;10839;43.206;23.550;2024-03-02T09:39:22;96862.34;;;9.01;100.00
21361;BME280;10839;43.206;23.550;2024-03-02T09:41:48;96857.88;;;9.08;100.00
21361;BME280;10839;43.206;23.550;2024-03-02T09:44:14;96863.75;;;8.97;100.00
21361;BME280;10839;43.206;23.550;2024-03-02T09:46:39;96874.22;;;8.92;100.00
21361;BME280;10839;43.206;23.550;2024-03-02T09:49:05;96857.38;;;8.98;100.00
21361;BME280;10839;43.206;23.550;2024-03-02T09:51:31;96870.19;;;9.24;100.00
21361;BME280;10839;43.206;23.550;2024-03-02T09:53:57;96869.16;;;9.03;100.00
21361;BME280;10839;43.206;23.550;2024-03-02T09:56:23;96878.31;;;8.88;100.00
21361;BME280;10839;43.206;23.550;2024-03-02T09:58:48;96872.56;;;9.33;100.00
21361;BME280;10839;43.206;23.550;2024-03-02T10:01:14;96876.63;;;9.29;100.00
21361;BME280;10839;43.206;23.550;2024-03-02T10:03:41;96880.53;;;9.05;100.00
21361;BME280;10839;43.206;23.550;2024-03-02T10:06:23;96869.34;;;9.02;100.00
21361;BME280;10839;43.206;23.550;2024-03-02T10:08:49;96874.09;;;9.21;100.00
21361;BME280;10839;43.206;23.550;2024-03-02T10:11:35;96864.75;;;9.17;100.00
21361;BME280;10839;43.206;23.550;2024-03-02T10:14:10;96868.59;;;9.29;100.00
21361;BME280;10839;43.206;23.550;2024-03-02T10:16:44;96869.31;;;9.44;100.00
21361;BME280;10839;43.206;23.550;2024-03-02T10:19:19;96877.91;;;9.33;100.00
21361;BME280;10839;43.206;23.550;2024-03-02T10:21:54;96871.78;;;8.97;100.00
21361;BME280;10839;43.206;23.550;2024-03-02T10:24:21;96855.19;;;9.08;100.00
21361;BME280;10839;43.206;23.550;2024-03-02T10:26:48;96872.66;;;9.25;100.00
21361;BME280;10839;43.206;23.550;2024-03-02T10:29:14;96877.78;;;9.20;100.00
21361;BME280;10839;43.206;23.550;2024-03-02T10:31:41;96865.63;;;8.96;100.00
21361;BME280;10839;43.206;23.550;2024-03-02T10:34:10;96869.22;;;9.31;100.00
21361;BME280;10839;43.206;23.550;2024-03-02T10:36:36;96868.34;;;9.24;100.00
21361;BME280;10839;43.206;23.550;2024-03-02T10:39:04;96870.91;;;9.11;100.00
21361;BME280;10839;43.206;23.550;2024-03-02T10:41:33;96855.97;;;8.81;100.00
21361;BME280;10839;43.206;23.550;2024-03-02T10:44:02;96872.16;;;9.36;100.00
21361;BME280;10839;43.206;23.550;2024-03-02T10:46:29;96871.13;;;9.37;100.00
21361;BME280;10839;43.206;23.550;2024-03-02T10:48:56;96863.06;;;9.37;100.00
21361;BME280;10839;43.206;23.550;2024-03-02T10:51:27;96858.75;;;9.15;100.00
21361;BME280;10839;43.206;23.550;2024-03-02T10:53:54;96856.50;;;9.40;100.00
21361;BME280;10839;43.206;23.550;2024-03-02T10:56:30;96842.31;;;9.52;100.00
21361;BME280;10839;43.206;23.550;2024-03-02T10:59:03;96858.97;;;9.41;100.00
21361;BME280;10839;43.206;23.550;2024-03-02T11:01:30;96849.66;;;9.37;100.00
21361;BME280;10839;43.206;23.550;2024-03-02T11:03:57;96844.66;;;9.62;100.00
21361;BME280;10839;43.206;23.550;2024-03-02T11:06:23;96849.81;;;9.63;100.00
21361;BME280;10839;43.206;23.550;2024-03-02T11:08:53;96846.81;;;9.45;100.00
21361;BME280;10839;43.206;23.550;2024-03-02T11:11:27;96837.00;;;9.31;100.00
21361;BME280;10839;43.206;23.550;2024-03-02T11:13:56;96837.59;;;9.54;100.00
21361;BME280;10839;43.206;23.550;2024-03-02T11:16:42;96830.66;;;9.66;100.00
21361;BME280;10839;43.206;23.550;2024-03-02T11:26:48;96828.41;;;9.42;100.00
21361;BME280;10839;43.206;23.550;2024-03-02T11:32:02;96846.91;;;9.31;100.00
21361;BME280;10839;43.206;23.550;2024-03-02T11:34:34;96833.88;;;9.55;100.00
21361;BME280;10839;43.206;23.550;2024-03-02T11:37:03;96830.66;;;9.39;100.00
21361;BME280;10839;43.206;23.550;2024-03-02T11:39:30;96839.19;;;9.21;100.00
21361;BME280;10839;43.206;23.550;2024-03-02T11:41:57;96820.09;;;9.37;100.00
21361;BME280;10839;43.206;23.550;2024-03-02T11:44:26;96831.19;;;9.55;100.00
21361;BME280;10839;43.206;23.550;2024-03-02T11:46:57;96835.53;;;9.56;100.00
21361;BME280;10839;43.206;23.550;2024-03-02T11:49:49;96843.44;;;9.37;100.00
21361;BME280;10839;43.206;23.550;2024-03-02T11:52:15;96835.66;;;9.48;100.00
21361;BME280;10839;43.206;23.550;2024-03-02T11:54:44;96833.59;;;9.71;100.00
21361;BME280;10839;43.206;23.550;2024-03-02T11:57:17;96829.56;;;9.61;100.00
21361;BME280;10839;43.206;23.550;2024-03-02T11:59:44;96830.78;;;9.58;100.00
21361;BME280;10839;43.206;23.550;2024-03-02T12:02:18;96839.81;;;9.78;100.00
21361;BME280;10839;43.206;23.550;2024-03-02T12:04:46;96845.56;;;9.75;100.00
21361;BME280;10839;43.206;23.550;2024-03-02T12:07:19;96845.41;;;9.49;100.00
21361;BME280;10839;43.206;23.550;2024-03-02T12:09:47;96835.38;;;9.64;100.00
21361;BME280;10839;43.206;23.550;2024-03-02T12:12:13;96840.53;;;9.59;100.00
21361;BME280;10839;43.206;23.550;2024-03-02T12:14:50;96847.44;;;9.47;100.00
21361;BME280;10839;43.206;23.550;2024-03-02T12:17:16;96844.91;;;9.39;100.00
21361;BME280;10839;43.206;23.550;2024-03-02T12:19:41;96849.75;;;9.50;100.00
21361;BME280;10839;43.206;23.550;2024-03-02T12:22:07;96846.66;;;9.53;100.00
21361;BME280;10839;43.206;23.550;2024-03-02T12:24:32;96852.56;;;9.42;100.00
21361;BME280;10839;43.206;23.550;2024-03-02T12:26:58;96854.31;;;9.29;100.00
21361;BME280;10839;43.206;23.550;2024-03-02T12:29:24;96854.63;;;9.40;100.00
21361;BME280;10839;43.206;23.550;2024-03-02T12:31:52;96846.03;;;9.51;100.00
21361;BME280;10839;43.206;23.550;2024-03-02T12:34:21;96847.75;;;9.31;100.00
21361;BME280;10839;43.206;23.550;2024-03-02T12:36:47;96839.53;;;9.39;100.00
21361;BME280;10839;43.206;23.550;2024-03-02T12:39:16;96838.00;;;9.51;100.00
21361;BME280;10839;43.206;23.550;2024-03-02T12:41:42;96836.94;;;9.52;100.00
21361;BME280;10839;43.206;23.550;2024-03-02T12:44:08;96843.28;;;9.38;100.00
21361;BME280;10839;43.206;23.550;2024-03-02T12:46:34;96846.59;;;9.47;100.00
21361;BME280;10839;43.206;23.550;2024-03-02T12:49:12;96834.63;;;9.77;100.00
21361;BME280;10839;43.206;23.550;2024-03-02T12:51:39;96851.72;;;9.63;100.00
21361;BME280;10839;43.206;23.550;2024-03-02T12:54:11;96853.22;;;9.44;100.00
21361;BME280;10839;43.206;23.550;2024-03-02T12:56:37;96841.28;;;9.53;100.00
21361;BME280;10839;43.206;23.550;2024-03-02T12:59:04;96853.41;;;9.70;100.00
21361;BME280;10839;43.206;23.550;2024-03-02T13:01:29;96857.47;;;9.60;100.00
21361;BME280;10839;43.206;23.550;2024-03-02T13:03:57;96845.75;;;9.40;100.00